sensor_id;sensor_type;location;lat;lon;timestamp;P1;durP1;ratioP1;P2;durP2;ratioP2
31990;SDS011;18508;49.386;8.370;2024-02-04T00:01:04;2.03;;;0.70;;
31990;SDS011;18508;49.386;8.370;2024-02-04T00:03:33;1.90;;;0.50;;
31990;SDS011;18508;49.386;8.370;2024-02-04T00:06:03;0.98;;;0.57;;
31990;SDS011;18508;49.386;8.370;2024-02-04T00:08:33;2.25;;;0.52;;
31990;SDS011;18508;49.386;8.370;2024-02-04T00:11:01;0.80;;;0.40;;
31990;SDS011;18508;49.386;8.370;2024-02-04T00:13:31;1.55;;;0.70;;
31990;SDS011;18508;49.386;8.370;2024-02-04T00:16:02;2.78;;;0.75;;
31990;SDS011;18508;49.386;8.370;2024-02-04T00:18:31;1.67;;;0.47;;
31990;SDS011;18508;49.386;8.370;2024-02-04T00:20:59;1.02;;;0.52;;
31990;SDS011;18508;49.386;8.370;2024-02-04T00:23:29;0.90;;;0.52;;
31990;SDS011;18508;49.386;8.370;2024-02-04T00:25:57;0.95;;;0.50;;
31990;SDS011;18508;49.386;8.370;2024-02-04T00:28:26;0.98;;;0.50;;
31990;SDS011;18508;49.386;8.370;2024-02-04T00:30:55;1.27;;;0.50;;
31990;SDS011;18508;49.386;8.370;2024-02-04T00:33:25;0.73;;;0.40;;
31990;SDS011;18508;49.386;8.370;2024-02-04T00:35:54;2.40;;;0.60;;
31990;SDS011;18508;49.386;8.370;2024-02-04T00:38:23;1.13;;;0.70;;
31990;SDS011;18508;49.386;8.370;2024-02-04T00:40:53;0.73;;;0.40;;
31990;SDS011;18508;49.386;8.370;2024-02-04T00:43:24;1.50;;;0.80;;
31990;SDS011;18508;49.386;8.370;2024-02-04T00:45:52;0.77;;;0.50;;
31990;SDS011;18508;49.386;8.370;2024-02-04T00:48:23;1.10;;;0.80;;
31990;SDS011;18508;49.386;8.370;2024-02-04T00:50:52;1.55;;;0.88;;
31990;SDS011;18508;49.386;8.370;2024-02-04T00:53:22;1.20;;;0.68;;
31990;SDS011;18508;49.386;8.370;2024-02-04T00:55:50;1.17;;;0.52;;
31990;SDS011;18508;49.386;8.370;2024-02-04T00:58:20;2.03;;;0.80;;
31990;SDS011;18508;49.386;8.370;2024-02-04T01:00:49;1.52;;;0.85;;
31990;SDS011;18508;49.386;8.370;2024-02-04T01:03:17;1.58;;;0.70;;
31990;SDS011;18508;49.386;8.370;2024-02-04T01:05:46;0.93;;;0.50;;
31990;SDS011;18508;49.386;8.370;2024-02-04T01:08:15;1.30;;;0.80;;
31990;SDS011;18508;49.386;8.370;2024-02-04T01:10:44;0.90;;;0.50;;
31990;SDS011;18508;49.386;8.370;2024-02-04T01:13:13;0.90;;;0.40;;
31990;SDS011;18508;49.386;8.370;2024-02-04T01:15:43;1.23;;;0.50;;
31990;SDS011;18508;49.386;8.370;2024-02-04T01:18:11;0.95;;;0.52;;
31990;SDS011;18508;49.386;8.370;2024-02-04T01:20:39;1.27;;;0.47;;
31990;SDS011;18508;49.386;8.370;2024-02-04T01:23:08;1.40;;;0.70;;
31990;SDS011;18508;49.386;8.370;2024-02-04T01:25:37;1.33;;;0.77;;
31990;SDS011;18508;49.386;8.370;2024-02-04T01:28:09;0.73;;;0.52;;
31990;SDS011;18508;49.386;8.370;2024-02-04T01:30:38;1.48;;;0.80;;
31990;SDS011;18508;49.386;8.370;2024-02-04T01:33:08;1.05;;;0.63;;
31990;SDS011;18508;49.386;8.370;2024-02-04T01:35:36;1.95;;;0.65;;
31990;SDS011;18508;49.386;8.370;2024-02-04T01:38:05;1.38;;;0.70;;
31990;SDS011;18508;49.386;8.370;2024-02-04T01:40:33;1.65;;;0.82;;
31990;SDS011;18508;49.386;8.370;2024-02-04T01:43:02;1.98;;;1.08;;
31990;SDS011;18508;49.386;8.370;2024-02-04T01:45:31;1.17;;;0.63;;
31990;SDS011;18508;49.386;8.370;2024-02-04T01:48:02;0.70;;;0.60;;
31990;SDS011;18508;49.386;8.370;2024-02-04T01:50:32;2.83;;;0.73;;
31990;SDS011;18508;49.386;8.370;2024-02-04T01:53:00;2.50;;;0.77;;
31990;SDS011;18508;49.386;8.370;2024-02-04T01:55:28;1.88;;;1.15;;
31990;SDS011;18508;49.386;8.370;2024-02-04T01:57:57;1.15;;;0.63;;
31990;SDS011;18508;49.386;8.370;2024-02-04T02:00:26;3.40;;;1.13;;
31990;SDS011;18508;49.386;8.370;2024-02-04T02:02:55;3.05;;;0.95;;
31990;SDS011;18508;49.386;8.370;2024-02-04T02:05:28;2.30;;;1.02;;
31990;SDS011;18508;49.386;8.370;2024-02-04T02:07:59;3.13;;;1.20;;
31990;SDS011;18508;49.386;8.370;2024-02-04T02:10:28;3.47;;;1.50;;
31990;SDS011;18508;49.386;8.370;2024-02-04T02:12:59;3.03;;;1.25;;
31990;SDS011;18508;49.386;8.370;2024-02-04T02:15:40;2.17;;;1.20;;
31990;SDS011;18508;49.386;8.370;2024-02-04T02:18:14;2.30;;;1.20;;
31990;SDS011;18508;49.386;8.370;2024-02-04T02:20:52;3.05;;;1.30;;
31990;SDS011;18508;49.386;8.370;2024-02-04T02:23:35;3.15;;;1.50;;
31990;SDS011;18508;49.386;8.370;2024-02-04T02:26:12;2.92;;;1.30;;
31990;SDS011;18508;49.386;8.370;2024-02-04T02:28:40;2.20;;;1.27;;
31990;SDS011;18508;49.386;8.370;2024-02-04T02:31:09;2.70;;;1.20;;
31990;SDS011;18508;49.386;8.370;2024-02-04T02:33:37;3.90;;;1.40;;
31990;SDS011;18508;49.386;8.370;2024-02-04T02:36:06;3.05;;;1.20;;
31990;SDS011;18508;49.386;8.370;2024-02-04T02:38:42;3.03;;;1.35;;
31990;SDS011;18508;49.386;8.370;2024-02-04T02:41:18;2.10;;;1.10;;
31990;SDS011;18508;49.386;8.370;2024-02-04T02:43:49;3.08;;;1.38;;
31990;SDS011;18508;49.386;8.370;2024-02-04T02:46:19;2.70;;;1.33;;
31990;SDS011;18508;49.386;8.370;2024-02-04T02:48:48;2.58;;;1.15;;
31990;SDS011;18508;49.386;8.370;2024-02-04T02:51:17;4.07;;;1.20;;
31990;SDS011;18508;49.386;8.370;2024-02-04T02:53:46;2.00;;;1.00;;
31990;SDS011;18508;49.386;8.370;2024-02-04T02:56:15;2.35;;;1.10;;
31990;SDS011;18508;49.386;8.370;2024-02-04T02:58:43;5.97;;;2.38;;
31990;SDS011;18508;49.386;8.370;2024-02-04T03:01:12;2.67;;;1.00;;
31990;SDS011;18508;49.386;8.370;2024-02-04T03:03:41;2.63;;;1.35;;
31990;SDS011;18508;49.386;8.370;2024-02-04T03:06:09;2.35;;;1.10;;
31990;SDS011;18508;49.386;8.370;2024-02-04T03:08:38;3.08;;;1.20;;
31990;SDS011;18508;49.386;8.370;2024-02-04T03:11:07;1.70;;;0.90;;
31990;SDS011;18508;49.386;8.370;2024-02-04T03:13:37;2.45;;;0.90;;
31990;SDS011;18508;49.386;8.370;2024-02-04T03:16:11;1.73;;;1.10;;
31990;SDS011;18508;49.386;8.370;2024-02-04T03:18:40;2.05;;;1.17;;
31990;SDS011;18508;49.386;8.370;2024-02-04T03:21:12;2.05;;;1.15;;
31990;SDS011;18508;49.386;8.370;2024-02-04T03:23:41;1.70;;;1.00;;
31990;SDS011;18508;49.386;8.370;2024-02-04T03:26:10;2.05;;;1.23;;
31990;SDS011;18508;49.386;8.370;2024-02-04T03:28:41;2.70;;;1.30;;
31990;SDS011;18508;49.386;8.370;2024-02-04T03:31:11;2.03;;;1.00;;
31990;SDS011;18508;49.386;8.370;2024-02-04T03:33:40;2.05;;;0.98;;
31990;SDS011;18508;49.386;8.370;2024-02-04T03:36:08;1.90;;;1.00;;
31990;SDS011;18508;49.386;8.370;2024-02-04T03:38:38;2.65;;;1.30;;
31990;SDS011;18508;49.386;8.370;2024-02-04T03:41:06;2.13;;;0.93;;
31990;SDS011;18508;49.386;8.370;2024-02-04T03:43:35;2.30;;;0.82;;
31990;SDS011;18508;49.386;8.370;2024-02-04T03:46:04;1.88;;;0.90;;
31990;SDS011;18508;49.386;8.370;2024-02-04T03:48:35;3.03;;;1.02;;
31990;SDS011;18508;49.386;8.370;2024-02-04T03:51:03;2.20;;;1.42;;
31990;SDS011;18508;49.386;8.370;2024-02-04T03:53:32;1.80;;;0.90;;
31990;SDS011;18508;49.386;8.370;2024-02-04T03:56:01;1.85;;;0.88;;
31990;SDS011;18508;49.386;8.370;2024-02-04T03:58:30;2.38;;;0.80;;
31990;SDS011;18508;49.386;8.370;2024-02-04T04:01:00;1.38;;;0.90;;
31990;SDS011;18508;49.386;8.370;2024-02-04T04:03:29;1.90;;;0.88;;
31990;SDS011;18508;49.386;8.370;2024-02-04T04:06:00;1.42;;;0.70;;
31990;SDS011;18508;49.386;8.370;2024-02-04T04:08:30;1.55;;;0.70;;
31990;SDS011;18508;49.386;8.370;2024-02-04T04:10:59;2.40;;;0.70;;
31990;SDS011;18508;49.386;8.370;2024-02-04T04:13:27;2.03;;;0.90;;
31990;SDS011;18508;49.386;8.370;2024-02-04T04:15:57;1.60;;;0.90;;
31990;SDS011;18508;49.386;8.370;2024-02-04T04:18:26;1.63;;;0.93;;
31990;SDS011;18508;49.386;8.370;2024-02-04T04:20:56;1.90;;;0.93;;
31990;SDS011;18508;49.386;8.370;2024-02-04T04:23:27;1.98;;;0.70;;
31990;SDS011;18508;49.386;8.370;2024-02-04T04:25:55;1.63;;;0.80;;
31990;SDS011;18508;49.386;8.370;2024-02-04T04:28:24;1.90;;;0.80;;
31990;SDS011;18508;49.386;8.370;2024-02-04T04:30:53;1.52;;;0.80;;
31990;SDS011;18508;49.386;8.370;2024-02-04T04:33:23;1.83;;;0.80;;
31990;SDS011;18508;49.386;8.370;2024-02-04T04:35:52;2.30;;;0.82;;
31990;SDS011;18508;49.386;8.370;2024-02-04T04:38:22;2.17;;;0.90;;
31990;SDS011;18508;49.386;8.370;2024-02-04T04:40:54;2.63;;;0.70;;
31990;SDS011;18508;49.386;8.370;2024-02-04T04:43:22;1.25;;;0.70;;
31990;SDS011;18508;49.386;8.370;2024-02-04T04:45:54;1.38;;;0.77;;
31990;SDS011;18508;49.386;8.370;2024-02-04T04:48:23;1.55;;;0.57;;
31990;SDS011;18508;49.386;8.370;2024-02-04T04:50:52;2.00;;;0.40;;
31990;SDS011;18508;49.386;8.370;2024-02-04T04:53:25;1.48;;;0.80;;
31990;SDS011;18508;49.386;8.370;2024-02-04T04:55:54;1.85;;;0.88;;
31990;SDS011;18508;49.386;8.370;2024-02-04T04:58:23;0.85;;;0.60;;
31990;SDS011;18508;49.386;8.370;2024-02-04T05:00:51;0.98;;;0.68;;
31990;SDS011;18508;49.386;8.370;2024-02-04T05:03:21;1.45;;;0.73;;
31990;SDS011;18508;49.386;8.370;2024-02-04T05:05:49;3.15;;;0.70;;
31990;SDS011;18508;49.386;8.370;2024-02-04T05:08:20;1.33;;;0.60;;
31990;SDS011;18508;49.386;8.370;2024-02-04T05:10:49;1.58;;;0.65;;
31990;SDS011;18508;49.386;8.370;2024-02-04T05:13:20;1.35;;;0.60;;
31990;SDS011;18508;49.386;8.370;2024-02-04T05:15:48;1.45;;;0.65;;
31990;SDS011;18508;49.386;8.370;2024-02-04T05:18:19;0.68;;;0.47;;
31990;SDS011;18508;49.386;8.370;2024-02-04T05:20:47;1.15;;;0.70;;
31990;SDS011;18508;49.386;8.370;2024-02-04T05:23:16;3.42;;;0.77;;
31990;SDS011;18508;49.386;8.370;2024-02-04T05:25:45;2.35;;;0.98;;
31990;SDS011;18508;49.386;8.370;2024-02-04T05:28:14;3.20;;;0.70;;
31990;SDS011;18508;49.386;8.370;2024-02-04T05:30:47;1.15;;;0.70;;
31990;SDS011;18508;49.386;8.370;2024-02-04T05:33:17;1.27;;;0.50;;
31990;SDS011;18508;49.386;8.370;2024-02-04T05:35:45;1.25;;;0.70;;
31990;SDS011;18508;49.386;8.370;2024-02-04T05:38:15;1.98;;;0.75;;
31990;SDS011;18508;49.386;8.370;2024-02-04T05:40:44;1.65;;;0.80;;
31990;SDS011;18508;49.386;8.370;2024-02-04T05:43:12;1.25;;;0.70;;
31990;SDS011;18508;49.386;8.370;2024-02-04T05:45:41;1.85;;;0.70;;
31990;SDS011;18508;49.386;8.370;2024-02-04T05:48:12;1.55;;;0.55;;
31990;SDS011;18508;49.386;8.370;2024-02-04T05:50:43;2.73;;;0.50;;
31990;SDS011;18508;49.386;8.370;2024-02-04T05:53:13;5.22;;;0.98;;
31990;SDS011;18508;49.386;8.370;2024-02-04T05:55:41;5.20;;;0.70;;
31990;SDS011;18508;49.386;8.370;2024-02-04T05:58:10;1.00;;;0.60;;
31990;SDS011;18508;49.386;8.370;2024-02-04T06:00:40;1.75;;;0.77;;
31990;SDS011;18508;49.386;8.370;2024-02-04T06:03:10;1.50;;;0.93;;
31990;SDS011;18508;49.386;8.370;2024-02-04T06:05:42;2.67;;;0.90;;
31990;SDS011;18508;49.386;8.370;2024-02-04T06:08:11;1.08;;;0.70;;
31990;SDS011;18508;49.386;8.370;2024-02-04T06:10:40;3.63;;;0.73;;
31990;SDS011;18508;49.386;8.370;2024-02-04T06:13:09;3.53;;;0.90;;
31990;SDS011;18508;49.386;8.370;2024-02-04T06:15:40;1.02;;;0.70;;
31990;SDS011;18508;49.386;8.370;2024-02-04T06:18:08;2.17;;;1.00;;
31990;SDS011;18508;49.386;8.370;2024-02-04T06:20:39;2.15;;;1.17;;
31990;SDS011;18508;49.386;8.370;2024-02-04T06:23:16;3.03;;;0.85;;
31990;SDS011;18508;49.386;8.370;2024-02-04T06:25:47;1.67;;;0.80;;
31990;SDS011;18508;49.386;8.370;2024-02-04T06:28:19;2.15;;;1.00;;
31990;SDS011;18508;49.386;8.370;2024-02-04T06:30:49;1.75;;;1.00;;
31990;SDS011;18508;49.386;8.370;2024-02-04T06:33:22;2.50;;;1.05;;
31990;SDS011;18508;49.386;8.370;2024-02-04T06:35:52;4.47;;;1.10;;
31990;SDS011;18508;49.386;8.370;2024-02-04T06:38:22;3.17;;;1.13;;
31990;SDS011;18508;49.386;8.370;2024-02-04T06:40:54;1.67;;;0.93;;
31990;SDS011;18508;49.386;8.370;2024-02-04T06:43:23;3.55;;;1.27;;
31990;SDS011;18508;49.386;8.370;2024-02-04T06:45:51;2.95;;;1.45;;
31990;SDS011;18508;49.386;8.370;2024-02-04T06:48:20;2.88;;;1.30;;
31990;SDS011;18508;49.386;8.370;2024-02-04T06:50:49;2.83;;;1.40;;
31990;SDS011;18508;49.386;8.370;2024-02-04T06:53:17;2.95;;;1.55;;
31990;SDS011;18508;49.386;8.370;2024-02-04T06:55:48;3.38;;;1.70;;
31990;SDS011;18508;49.386;8.370;2024-02-04T06:58:18;2.78;;;1.58;;
31990;SDS011;18508;49.386;8.370;2024-02-04T07:00:47;2.90;;;1.77;;
31990;SDS011;18508;49.386;8.370;2024-02-04T07:03:18;3.50;;;1.80;;
31990;SDS011;18508;49.386;8.370;2024-02-04T07:05:48;2.92;;;1.55;;
31990;SDS011;18508;49.386;8.370;2024-02-04T07:08:17;3.45;;;1.80;;
31990;SDS011;18508;49.386;8.370;2024-02-04T07:10:48;4.47;;;1.70;;
31990;SDS011;18508;49.386;8.370;2024-02-04T07:13:16;3.10;;;1.63;;
31990;SDS011;18508;49.386;8.370;2024-02-04T07:15:45;4.65;;;1.65;;
31990;SDS011;18508;49.386;8.370;2024-02-04T07:18:16;3.40;;;1.33;;
31990;SDS011;18508;49.386;8.370;2024-02-04T07:20:51;3.58;;;1.52;;
31990;SDS011;18508;49.386;8.370;2024-02-04T07:23:21;2.88;;;1.60;;
31990;SDS011;18508;49.386;8.370;2024-02-04T07:25:51;3.67;;;1.60;;
31990;SDS011;18508;49.386;8.370;2024-02-04T07:28:21;4.32;;;2.30;;
31990;SDS011;18508;49.386;8.370;2024-02-04T07:30:51;5.13;;;2.25;;
31990;SDS011;18508;49.386;8.370;2024-02-04T07:33:19;3.40;;;1.55;;
31990;SDS011;18508;49.386;8.370;2024-02-04T07:35:48;3.78;;;1.60;;
31990;SDS011;18508;49.386;8.370;2024-02-04T07:38:17;3.03;;;1.92;;
31990;SDS011;18508;49.386;8.370;2024-02-04T07:40:45;4.07;;;1.90;;
31990;SDS011;18508;49.386;8.370;2024-02-04T07:43:18;5.63;;;2.22;;
31990;SDS011;18508;49.386;8.370;2024-02-04T07:45:47;3.63;;;2.10;;
31990;SDS011;18508;49.386;8.370;2024-02-04T07:48:15;4.55;;;2.25;;
31990;SDS011;18508;49.386;8.370;2024-02-04T07:50:46;5.75;;;2.08;;
31990;SDS011;18508;49.386;8.370;2024-02-04T07:53:16;5.80;;;2.40;;
31990;SDS011;18508;49.386;8.370;2024-02-04T07:55:45;3.85;;;2.15;;
31990;SDS011;18508;49.386;8.370;2024-02-04T07:58:13;3.13;;;1.77;;
31990;SDS011;18508;49.386;8.370;2024-02-04T08:00:45;5.80;;;2.35;;
31990;SDS011;18508;49.386;8.370;2024-02-04T08:03:14;3.42;;;1.80;;
31990;SDS011;18508;49.386;8.370;2024-02-04T08:05:43;4.03;;;1.90;;
31990;SDS011;18508;49.386;8.370;2024-02-04T08:08:11;4.13;;;2.20;;
31990;SDS011;18508;49.386;8.370;2024-02-04T08:10:40;3.70;;;1.90;;
31990;SDS011;18508;49.386;8.370;2024-02-04T08:13:08;4.95;;;2.17;;
31990;SDS011;18508;49.386;8.370;2024-02-04T08:15:37;3.58;;;2.10;;
31990;SDS011;18508;49.386;8.370;2024-02-04T08:18:07;4.03;;;1.83;;
31990;SDS011;18508;49.386;8.370;2024-02-04T08:20:38;2.90;;;1.80;;
31990;SDS011;18508;49.386;8.370;2024-02-04T08:23:08;2.65;;;1.20;;
31990;SDS011;18508;49.386;8.370;2024-02-04T08:25:37;5.80;;;1.38;;
31990;SDS011;18508;49.386;8.370;2024-02-04T08:28:05;3.53;;;1.80;;
31990;SDS011;18508;49.386;8.370;2024-02-04T08:30:35;3.15;;;1.85;;
31990;SDS011;18508;49.386;8.370;2024-02-04T08:33:03;3.72;;;2.10;;
31990;SDS011;18508;49.386;8.370;2024-02-04T08:35:33;5.68;;;2.17;;
31990;SDS011;18508;49.386;8.370;2024-02-04T08:38:01;4.22;;;1.95;;
31990;SDS011;18508;49.386;8.370;2024-02-04T08:40:30;3.97;;;1.80;;
31990;SDS011;18508;49.386;8.370;2024-02-04T08:42:59;2.45;;;1.33;;
31990;SDS011;18508;49.386;8.370;2024-02-04T08:45:27;4.10;;;1.27;;
31990;SDS011;18508;49.386;8.370;2024-02-04T08:47:58;3.40;;;2.13;;
31990;SDS011;18508;49.386;8.370;2024-02-04T08:50:27;4.25;;;2.03;;
31990;SDS011;18508;49.386;8.370;2024-02-04T08:52:57;3.65;;;1.77;;
31990;SDS011;18508;49.386;8.370;2024-02-04T08:55:25;4.07;;;1.45;;
31990;SDS011;18508;49.386;8.370;2024-02-04T08:57:53;2.90;;;1.40;;
31990;SDS011;18508;49.386;8.370;2024-02-04T09:00:21;2.90;;;1.10;;
31990;SDS011;18508;49.386;8.370;2024-02-04T09:02:50;2.15;;;1.38;;
31990;SDS011;18508;49.386;8.370;2024-02-04T09:05:19;2.92;;;1.60;;
31990;SDS011;18508;49.386;8.370;2024-02-04T09:07:47;3.60;;;1.73;;
31990;SDS011;18508;49.386;8.370;2024-02-04T09:10:17;3.45;;;1.35;;
31990;SDS011;18508;49.386;8.370;2024-02-04T09:12:46;2.95;;;1.52;;
31990;SDS011;18508;49.386;8.370;2024-02-04T09:15:17;2.25;;;1.20;;
31990;SDS011;18508;49.386;8.370;2024-02-04T09:17:45;3.42;;;1.85;;
31990;SDS011;18508;49.386;8.370;2024-02-04T09:20:14;4.95;;;1.50;;
31990;SDS011;18508;49.386;8.370;2024-02-04T09:22:43;4.25;;;2.00;;
31990;SDS011;18508;49.386;8.370;2024-02-04T09:25:12;3.25;;;1.50;;
31990;SDS011;18508;49.386;8.370;2024-02-04T09:27:42;3.97;;;1.85;;
31990;SDS011;18508;49.386;8.370;2024-02-04T09:30:12;3.17;;;2.03;;
31990;SDS011;18508;49.386;8.370;2024-02-04T09:32:41;3.40;;;1.80;;
31990;SDS011;18508;49.386;8.370;2024-02-04T09:35:10;1.77;;;1.08;;
31990;SDS011;18508;49.386;8.370;2024-02-04T09:37:39;2.15;;;1.50;;
31990;SDS011;18508;49.386;8.370;2024-02-04T09:40:08;2.92;;;1.65;;
31990;SDS011;18508;49.386;8.370;2024-02-04T09:42:38;4.45;;;2.38;;
31990;SDS011;18508;49.386;8.370;2024-02-04T09:45:09;3.55;;;1.98;;
31990;SDS011;18508;49.386;8.370;2024-02-04T09:47:37;3.03;;;1.77;;
31990;SDS011;18508;49.386;8.370;2024-02-04T09:50:08;2.30;;;1.63;;
31990;SDS011;18508;49.386;8.370;2024-02-04T09:52:38;2.58;;;1.63;;
31990;SDS011;18508;49.386;8.370;2024-02-04T09:55:08;3.80;;;2.08;;
31990;SDS011;18508;49.386;8.370;2024-02-04T09:57:39;2.08;;;1.00;;
31990;SDS011;18508;49.386;8.370;2024-02-04T10:00:11;1.88;;;0.90;;
31990;SDS011;18508;49.386;8.370;2024-02-04T10:02:41;0.57;;;0.30;;
31990;SDS011;18508;49.386;8.370;2024-02-04T10:05:09;0.68;;;0.38;;
31990;SDS011;18508;49.386;8.370;2024-02-04T10:07:38;0.28;;;0.20;;
31990;SDS011;18508;49.386;8.370;2024-02-04T10:10:08;0.82;;;0.40;;
31990;SDS011;18508;49.386;8.370;2024-02-04T10:12:37;1.77;;;0.60;;
31990;SDS011;18508;49.386;8.370;2024-02-04T10:15:08;0.50;;;0.28;;
31990;SDS011;18508;49.386;8.370;2024-02-04T10:17:41;1.08;;;0.50;;
31990;SDS011;18508;49.386;8.370;2024-02-04T10:20:13;2.38;;;0.40;;
31990;SDS011;18508;49.386;8.370;2024-02-04T10:22:46;0.93;;;0.38;;
31990;SDS011;18508;49.386;8.370;2024-02-04T10:25:16;1.00;;;0.30;;
31990;SDS011;18508;49.386;8.370;2024-02-04T10:27:44;0.90;;;0.20;;
31990;SDS011;18508;49.386;8.370;2024-02-04T10:30:15;0.25;;;0.10;;
31990;SDS011;18508;49.386;8.370;2024-02-04T10:32:49;0.88;;;0.50;;
31990;SDS011;18508;49.386;8.370;2024-02-04T10:35:20;0.90;;;0.40;;
31990;SDS011;18508;49.386;8.370;2024-02-04T10:37:50;0.68;;;0.40;;
31990;SDS011;18508;49.386;8.370;2024-02-04T10:40:18;0.88;;;0.60;;
31990;SDS011;18508;49.386;8.370;2024-02-04T10:42:47;0.73;;;0.30;;
31990;SDS011;18508;49.386;8.370;2024-02-04T10:45:20;0.43;;;0.40;;
31990;SDS011;18508;49.386;8.370;2024-02-04T10:47:52;0.88;;;0.38;;
31990;SDS011;18508;49.386;8.370;2024-02-04T10:50:24;0.95;;;0.43;;
31990;SDS011;18508;49.386;8.370;2024-02-04T10:52:53;2.78;;;0.98;;
31990;SDS011;18508;49.386;8.370;2024-02-04T10:55:26;1.30;;;0.45;;
31990;SDS011;18508;49.386;8.370;2024-02-04T10:57:58;0.95;;;0.50;;
31990;SDS011;18508;49.386;8.370;2024-02-04T11:00:28;0.52;;;0.25;;
31990;SDS011;18508;49.386;8.370;2024-02-04T11:02:58;0.73;;;0.32;;
31990;SDS011;18508;49.386;8.370;2024-02-04T11:05:27;0.20;;;0.20;;
31990;SDS011;18508;49.386;8.370;2024-02-04T11:07:57;0.32;;;0.20;;
31990;SDS011;18508;49.386;8.370;2024-02-04T11:10:30;1.10;;;0.30;;
31990;SDS011;18508;49.386;8.370;2024-02-04T11:12:59;1.27;;;0.50;;
31990;SDS011;18508;49.386;8.370;2024-02-04T11:15:33;1.70;;;0.43;;
31990;SDS011;18508;49.386;8.370;2024-02-04T11:18:15;0.52;;;0.20;;
31990;SDS011;18508;49.386;8.370;2024-02-04T11:21:23;1.25;;;0.40;;
31990;SDS011;18508;49.386;8.370;2024-02-04T11:24:13;0.35;;;0.20;;
31990;SDS011;18508;49.386;8.370;2024-02-04T11:26:50;2.83;;;0.35;;
31990;SDS011;18508;49.386;8.370;2024-02-04T11:29:19;2.60;;;0.93;;
31990;SDS011;18508;49.386;8.370;2024-02-04T11:31:51;1.42;;;0.55;;
31990;SDS011;18508;49.386;8.370;2024-02-04T11:34:24;2.15;;;1.08;;
31990;SDS011;18508;49.386;8.370;2024-02-04T11:36:53;2.50;;;0.60;;
31990;SDS011;18508;49.386;8.370;2024-02-04T11:39:21;3.05;;;1.02;;
31990;SDS011;18508;49.386;8.370;2024-02-04T11:41:51;1.33;;;0.73;;
31990;SDS011;18508;49.386;8.370;2024-02-04T11:44:21;2.03;;;1.10;;
31990;SDS011;18508;49.386;8.370;2024-02-04T11:46:50;1.08;;;0.40;;
31990;SDS011;18508;49.386;8.370;2024-02-04T11:51:53;0.77;;;0.25;;
31990;SDS011;18508;49.386;8.370;2024-02-04T11:54:22;0.75;;;0.30;;
31990;SDS011;18508;49.386;8.370;2024-02-04T11:56:51;0.85;;;0.47;;
31990;SDS011;18508;49.386;8.370;2024-02-04T11:59:20;1.55;;;0.50;;
31990;SDS011;18508;49.386;8.370;2024-02-04T12:01:54;0.57;;;0.35;;
31990;SDS011;18508;49.386;8.370;2024-02-04T12:04:27;1.08;;;0.40;;
31990;SDS011;18508;49.386;8.370;2024-02-04T12:06:56;1.55;;;0.52;;
31990;SDS011;18508;49.386;8.370;2024-02-04T12:09:24;1.13;;;0.32;;
31990;SDS011;18508;49.386;8.370;2024-02-04T12:11:54;0.52;;;0.40;;
31990;SDS011;18508;49.386;8.370;2024-02-04T12:14:23;0.63;;;0.30;;
31990;SDS011;18508;49.386;8.370;2024-02-04T12:16:52;0.85;;;0.30;;
31990;SDS011;18508;49.386;8.370;2024-02-04T12:19:21;0.70;;;0.30;;
31990;SDS011;18508;49.386;8.370;2024-02-04T12:21:50;1.20;;;0.60;;
31990;SDS011;18508;49.386;8.370;2024-02-04T12:24:19;0.80;;;0.40;;
31990;SDS011;18508;49.386;8.370;2024-02-04T12:26:48;0.30;;;0.25;;
31990;SDS011;18508;49.386;8.370;2024-02-04T12:29:16;1.20;;;0.50;;
31990;SDS011;18508;49.386;8.370;2024-02-04T12:31:45;2.20;;;0.60;;
31990;SDS011;18508;49.386;8.370;2024-02-04T12:34:17;0.80;;;0.40;;
31990;SDS011;18508;49.386;8.370;2024-02-04T12:36:47;0.93;;;0.32;;
31990;SDS011;18508;49.386;8.370;2024-02-04T12:39:25;1.48;;;0.50;;
31990;SDS011;18508;49.386;8.370;2024-02-04T12:41:54;0.55;;;0.43;;
31990;SDS011;18508;49.386;8.370;2024-02-04T12:44:22;0.70;;;0.20;;
31990;SDS011;18508;49.386;8.370;2024-02-04T12:46:51;2.55;;;0.35;;
31990;SDS011;18508;49.386;8.370;2024-02-04T12:49:21;0.73;;;0.40;;
31990;SDS011;18508;49.386;8.370;2024-02-04T12:52:03;0.77;;;0.50;;
31990;SDS011;18508;49.386;8.370;2024-02-04T12:54:39;0.60;;;0.30;;
31990;SDS011;18508;49.386;8.370;2024-02-04T12:57:20;0.93;;;0.50;;
31990;SDS011;18508;49.386;8.370;2024-02-04T12:59:49;1.85;;;0.80;;
31990;SDS011;18508;49.386;8.370;2024-02-04T13:02:18;1.15;;;0.68;;
31990;SDS011;18508;49.386;8.370;2024-02-04T13:04:47;1.88;;;0.70;;
31990;SDS011;18508;49.386;8.370;2024-02-04T13:07:18;0.93;;;0.40;;
31990;SDS011;18508;49.386;8.370;2024-02-04T13:09:46;0.70;;;0.43;;
31990;SDS011;18508;49.386;8.370;2024-02-04T13:12:24;1.25;;;0.52;;
31990;SDS011;18508;49.386;8.370;2024-02-04T13:14:56;1.02;;;0.60;;
31990;SDS011;18508;49.386;8.370;2024-02-04T13:17:24;1.20;;;0.50;;
31990;SDS011;18508;49.386;8.370;2024-02-04T13:19:52;1.00;;;0.40;;
31990;SDS011;18508;49.386;8.370;2024-02-04T13:22:22;0.70;;;0.50;;
31990;SDS011;18508;49.386;8.370;2024-02-04T13:24:51;0.80;;;0.45;;
31990;SDS011;18508;49.386;8.370;2024-02-04T13:27:19;0.50;;;0.40;;
31990;SDS011;18508;49.386;8.370;2024-02-04T13:29:48;1.48;;;0.80;;
31990;SDS011;18508;49.386;8.370;2024-02-04T13:32:16;0.75;;;0.45;;
31990;SDS011;18508;49.386;8.370;2024-02-04T13:34:45;1.02;;;0.57;;
31990;SDS011;18508;49.386;8.370;2024-02-04T13:37:18;1.13;;;0.47;;
31990;SDS011;18508;49.386;8.370;2024-02-04T13:39:48;0.93;;;0.70;;
31990;SDS011;18508;49.386;8.370;2024-02-04T13:42:17;2.95;;;0.70;;
31990;SDS011;18508;49.386;8.370;2024-02-04T13:44:46;0.82;;;0.52;;
31990;SDS011;18508;49.386;8.370;2024-02-04T13:47:15;2.08;;;1.05;;
31990;SDS011;18508;49.386;8.370;2024-02-04T13:49:43;2.58;;;1.40;;
31990;SDS011;18508;49.386;8.370;2024-02-04T13:52:13;2.78;;;1.13;;
31990;SDS011;18508;49.386;8.370;2024-02-04T13:54:41;2.58;;;0.73;;
31990;SDS011;18508;49.386;8.370;2024-02-04T13:57:13;1.95;;;0.80;;
31990;SDS011;18508;49.386;8.370;2024-02-04T13:59:41;5.25;;;1.90;;
31990;SDS011;18508;49.386;8.370;2024-02-04T14:02:12;3.38;;;1.35;;
31990;SDS011;18508;49.386;8.370;2024-02-04T14:04:40;3.90;;;1.20;;
31990;SDS011;18508;49.386;8.370;2024-02-04T14:07:09;1.58;;;0.77;;
31990;SDS011;18508;49.386;8.370;2024-02-04T14:09:37;0.90;;;0.57;;
31990;SDS011;18508;49.386;8.370;2024-02-04T14:12:06;1.35;;;0.70;;
31990;SDS011;18508;49.386;8.370;2024-02-04T14:14:37;2.72;;;0.60;;
31990;SDS011;18508;49.386;8.370;2024-02-04T14:17:06;1.92;;;0.90;;
31990;SDS011;18508;49.386;8.370;2024-02-04T14:19:35;2.75;;;0.70;;
31990;SDS011;18508;49.386;8.370;2024-02-04T14:22:03;1.30;;;0.70;;
31990;SDS011;18508;49.386;8.370;2024-02-04T14:24:32;0.90;;;0.40;;
31990;SDS011;18508;49.386;8.370;2024-02-04T14:27:00;1.40;;;0.70;;
31990;SDS011;18508;49.386;8.370;2024-02-04T14:29:32;2.42;;;0.88;;
31990;SDS011;18508;49.386;8.370;2024-02-04T14:32:01;1.17;;;0.75;;
31990;SDS011;18508;49.386;8.370;2024-02-04T14:34:30;3.45;;;1.52;;
31990;SDS011;18508;49.386;8.370;2024-02-04T14:37:00;3.97;;;0.90;;
31990;SDS011;18508;49.386;8.370;2024-02-04T14:39:29;1.00;;;0.57;;
31990;SDS011;18508;49.386;8.370;2024-02-04T14:41:58;2.38;;;0.60;;
31990;SDS011;18508;49.386;8.370;2024-02-04T14:44:27;1.30;;;0.50;;
31990;SDS011;18508;49.386;8.370;2024-02-04T14:46:56;0.80;;;0.60;;
31990;SDS011;18508;49.386;8.370;2024-02-04T14:49:25;0.85;;;0.40;;
31990;SDS011;18508;49.386;8.370;2024-02-04T14:51:54;1.38;;;0.55;;
31990;SDS011;18508;49.386;8.370;2024-02-04T14:54:23;2.35;;;0.98;;
31990;SDS011;18508;49.386;8.370;2024-02-04T14:56:53;1.30;;;0.50;;
31990;SDS011;18508;49.386;8.370;2024-02-04T14:59:22;1.83;;;0.55;;
31990;SDS011;18508;49.386;8.370;2024-02-04T15:01:50;3.25;;;1.08;;
31990;SDS011;18508;49.386;8.370;2024-02-04T15:04:21;3.67;;;1.35;;
31990;SDS011;18508;49.386;8.370;2024-02-04T15:06:52;2.05;;;0.88;;